Terminal Aerodrome Forecast
Issued by NWS Greer, SC

Home | Current Version | Previous Version | Text Only | Print | Product List | Glossary On
Versions: 1 2 3 4 5 6 7 8 9 10 11 12 13 14 15 16 17 18 19 20 21 22
000
FTUS42 KGSP 211729
TAFAVL
TAF
KAVL 211729Z 2118/2218 19011KT P6SM VCSH SCT015 BKN030
      TEMPO 2120/2123 6SM -RA BKN015
     FM212300 18009KT P6SM VCSH BKN030
     FM220000 16005KT P6SM VCSH BKN008
     FM220300 16004KT 5SM BR BKN008 PROB30 2203/2209 2SM -RA BR
      OVC003
     FM221400 18006KT P6SM BKN015
     FM221600 18007KT P6SM SCT020 BKN040=

USA.gov is the U.S. government's official web portal to all federal, state and local government web resources and services.